Bertolinia, Brazil
Current Conditions -  °F | °C
As of 2:00 PM on Thursday 30 Oct 2014 (Local Time) from SBTE Reporting Station
Clear Clear  
Wind Chill: 99°   Ceiling: Unl
Heat Index: 99°   Visibility: 6mi
Dew Point: 52°   Wind: 7mph
Humidity: 21%   Direction: 80°E
Pressure: 29.74"   Gusts: NA
Location:  7.64°S, 43.95°W
Report Text: SBTE 301700Z 08006KT CAVOK 37/11 Q1007
Loading
Personal Weather Stations






























Interactive Weather Map
Tropical Storm Tracking
New forecast layout! Learn more

10-Day Weather Forecast

Advertisements
Track Severe Weather on mobile